sensor_id;sensor_type;location;lat;lon;timestamp;pressure;altitude;pressure_sealevel;temperature;humidity
38225;BME280;24025;48.138;11.428;2022-12-29T00:01:13;95340.88;;;4.43;61.25
38225;BME280;24025;48.138;11.428;2022-12-29T00:03:46;95342.75;;;4.42;61.68
38225;BME280;24025;48.138;11.428;2022-12-29T00:06:17;95342.09;;;4.45;62.07
38225;BME280;24025;48.138;11.428;2022-12-29T00:08:47;95338.34;;;4.46;61.14
38225;BME280;24025;48.138;11.428;2022-12-29T00:11:22;95333.94;;;4.50;60.94
38225;BME280;24025;48.138;11.428;2022-12-29T00:13:53;95332.53;;;4.53;60.66
38225;BME280;24025;48.138;11.428;2022-12-29T00:16:44;95333.31;;;4.53;60.46
38225;BME280;24025;48.138;11.428;2022-12-29T00:19:14;95332.88;;;4.51;60.77
38225;BME280;24025;48.138;11.428;2022-12-29T00:22:04;95329.47;;;4.51;60.71
38225;BME280;24025;48.138;11.428;2022-12-29T00:24:53;95326.03;;;4.50;60.90
38225;BME280;24025;48.138;11.428;2022-12-29T00:27:23;95336.59;;;4.50;60.38
38225;BME280;24025;48.138;11.428;2022-12-29T00:30:18;95329.75;;;4.49;61.18
38225;BME280;24025;48.138;11.428;2022-12-29T00:33:19;95319.88;;;4.46;61.28
38225;BME280;24025;48.138;11.428;2022-12-29T00:36:20;95325.16;;;4.46;60.81
38225;BME280;24025;48.138;11.428;2022-12-29T00:38:56;95320.53;;;4.43;60.16
38225;BME280;24025;48.138;11.428;2022-12-29T00:41:47;95315.25;;;4.43;61.04
38225;BME280;24025;48.138;11.428;2022-12-29T00:44:37;95316.03;;;4.44;61.43
38225;BME280;24025;48.138;11.428;2022-12-29T00:47:07;95315.59;;;4.42;61.22
38225;BME280;24025;48.138;11.428;2022-12-29T00:49:37;95323.50;;;4.42;60.36
38225;BME280;24025;48.138;11.428;2022-12-29T00:52:11;95317.44;;;4.41;60.65
38225;BME280;24025;48.138;11.428;2022-12-29T00:54:42;95313.25;;;4.40;61.13
38225;BME280;24025;48.138;11.428;2022-12-29T00:57:14;95312.16;;;4.41;61.00
38225;BME280;24025;48.138;11.428;2022-12-29T00:59:45;95323.19;;;4.43;60.13
38225;BME280;24025;48.138;11.428;2022-12-29T01:02:15;95320.22;;;4.45;60.33
38225;BME280;24025;48.138;11.428;2022-12-29T01:04:46;95330.00;;;4.44;60.82
38225;BME280;24025;48.138;11.428;2022-12-29T01:07:16;95318.34;;;4.45;60.82
38225;BME280;24025;48.138;11.428;2022-12-29T01:09:46;95323.72;;;4.49;60.36
38225;BME280;24025;48.138;11.428;2022-12-29T01:12:35;95321.84;;;4.49;60.45
38225;BME280;24025;48.138;11.428;2022-12-29T01:15:14;95327.25;;;4.53;60.49
38225;BME280;24025;48.138;11.428;2022-12-29T01:17:44;95326.59;;;4.56;60.06
38225;BME280;24025;48.138;11.428;2022-12-29T01:20:15;95327.03;;;4.58;60.03
38225;BME280;24025;48.138;11.428;2022-12-29T01:22:45;95334.66;;;4.60;60.39
38225;BME280;24025;48.138;11.428;2022-12-29T01:25:16;95325.28;;;4.62;60.72
38225;BME280;24025;48.138;11.428;2022-12-29T01:27:46;95323.84;;;4.65;59.87
38225;BME280;24025;48.138;11.428;2022-12-29T01:30:16;95330.69;;;4.66;59.51
38225;BME280;24025;48.138;11.428;2022-12-29T01:32:47;95326.16;;;4.66;59.09
38225;BME280;24025;48.138;11.428;2022-12-29T01:35:17;95337.50;;;4.67;58.91
38225;BME280;24025;48.138;11.428;2022-12-29T01:37:47;95330.81;;;4.69;58.58
38225;BME280;24025;48.138;11.428;2022-12-29T01:40:18;95329.56;;;4.67;58.71
38225;BME280;24025;48.138;11.428;2022-12-29T01:42:48;95338.25;;;4.67;58.65
38225;BME280;24025;48.138;11.428;2022-12-29T01:45:19;95333.09;;;4.59;58.49
38225;BME280;24025;48.138;11.428;2022-12-29T01:47:59;95334.66;;;4.60;59.48
38225;BME280;24025;48.138;11.428;2022-12-29T01:50:41;95338.81;;;4.61;58.95
38225;BME280;24025;48.138;11.428;2022-12-29T01:53:18;95334.31;;;4.61;59.25
38225;BME280;24025;48.138;11.428;2022-12-29T01:56:00;95332.44;;;4.62;59.35
38225;BME280;24025;48.138;11.428;2022-12-29T01:58:34;95331.78;;;4.65;59.19
38225;BME280;24025;48.138;11.428;2022-12-29T02:01:06;95327.59;;;4.64;58.51
38225;BME280;24025;48.138;11.428;2022-12-29T02:03:37;95330.69;;;4.66;58.93
38225;BME280;24025;48.138;11.428;2022-12-29T02:08:46;95323.53;;;4.66;58.47
38225;BME280;24025;48.138;11.428;2022-12-29T02:11:17;95311.09;;;4.67;58.00
38225;BME280;24025;48.138;11.428;2022-12-29T02:13:47;95315.28;;;4.68;57.60
38225;BME280;24025;48.138;11.428;2022-12-29T02:16:21;95311.09;;;4.67;58.10
38225;BME280;24025;48.138;11.428;2022-12-29T02:32:56;95320.91;;;4.78;56.13
38225;BME280;24025;48.138;11.428;2022-12-29T02:35:44;95309.69;;;4.81;56.13
38225;BME280;24025;48.138;11.428;2022-12-29T02:38:51;95305.94;;;4.82;56.63
38225;BME280;24025;48.138;11.428;2022-12-29T02:44:12;95299.53;;;4.83;57.21
38225;BME280;24025;48.138;11.428;2022-12-29T02:46:51;95290.97;;;4.87;56.57
38225;BME280;24025;48.138;11.428;2022-12-29T02:49:48;95292.19;;;4.89;55.78
38225;BME280;24025;48.138;11.428;2022-12-29T02:52:49;95291.84;;;4.91;55.54
38225;BME280;24025;48.138;11.428;2022-12-29T02:55:17;95288.53;;;4.94;55.62
38225;BME280;24025;48.138;11.428;2022-12-29T02:57:48;95293.94;;;4.97;55.43
38225;BME280;24025;48.138;11.428;2022-12-29T03:00:18;95288.75;;;5.01;55.10
38225;BME280;24025;48.138;11.428;2022-12-29T03:08:44;95279.38;;;5.16;54.72
38225;BME280;24025;48.138;11.428;2022-12-29T03:11:21;95270.00;;;5.18;54.77
38225;BME280;24025;48.138;11.428;2022-12-29T03:14:24;95262.19;;;5.22;55.03
38225;BME280;24025;48.138;11.428;2022-12-29T03:20:18;95265.03;;;5.29;54.38
38225;BME280;24025;48.138;11.428;2022-12-29T03:22:56;95269.19;;;5.30;54.47
38225;BME280;24025;48.138;11.428;2022-12-29T03:25:33;95267.44;;;5.34;54.24
38225;BME280;24025;48.138;11.428;2022-12-29T03:28:09;95263.69;;;5.35;54.27
38225;BME280;24025;48.138;11.428;2022-12-29T03:30:41;95264.59;;;5.39;54.57
38225;BME280;24025;48.138;11.428;2022-12-29T03:33:15;95265.34;;;5.39;54.78
38225;BME280;24025;48.138;11.428;2022-12-29T03:35:47;95261.25;;;5.42;54.03
38225;BME280;24025;48.138;11.428;2022-12-29T03:38:22;95259.03;;;5.44;53.74
38225;BME280;24025;48.138;11.428;2022-12-29T03:40:58;95261.34;;;5.46;53.27
38225;BME280;24025;48.138;11.428;2022-12-29T03:43:29;95261.13;;;5.51;53.63
38225;BME280;24025;48.138;11.428;2022-12-29T03:46:00;95259.66;;;5.53;53.62
38225;BME280;24025;48.138;11.428;2022-12-29T03:48:30;95262.75;;;5.55;53.68
38225;BME280;24025;48.138;11.428;2022-12-29T03:51:02;95250.41;;;5.59;53.35
38225;BME280;24025;48.138;11.428;2022-12-29T03:53:33;95257.66;;;5.62;53.22
38225;BME280;24025;48.138;11.428;2022-12-29T03:56:03;95245.97;;;5.63;52.49
38225;BME280;24025;48.138;11.428;2022-12-29T03:58:34;95254.00;;;5.67;52.94
38225;BME280;24025;48.138;11.428;2022-12-29T04:01:05;95251.78;;;5.69;53.04
38225;BME280;24025;48.138;11.428;2022-12-29T04:03:35;95248.91;;;5.74;52.64
38225;BME280;24025;48.138;11.428;2022-12-29T04:06:05;95249.34;;;5.76;52.70
38225;BME280;24025;48.138;11.428;2022-12-29T04:08:37;95251.31;;;5.79;52.59
38225;BME280;24025;48.138;11.428;2022-12-29T04:11:08;95249.44;;;5.80;52.87
38225;BME280;24025;48.138;11.428;2022-12-29T04:13:38;95248.31;;;5.81;53.13
38225;BME280;24025;48.138;11.428;2022-12-29T04:16:10;95241.59;;;5.83;52.53
38225;BME280;24025;48.138;11.428;2022-12-29T04:18:41;95249.19;;;5.85;52.25
38225;BME280;24025;48.138;11.428;2022-12-29T04:21:11;95248.50;;;5.88;52.20
38225;BME280;24025;48.138;11.428;2022-12-29T04:23:42;95247.09;;;5.90;52.57
38225;BME280;24025;48.138;11.428;2022-12-29T04:26:12;95241.47;;;5.92;52.89
38225;BME280;24025;48.138;11.428;2022-12-29T04:28:42;95237.72;;;5.93;52.37
38225;BME280;24025;48.138;11.428;2022-12-29T04:31:13;95245.41;;;5.98;52.09
38225;BME280;24025;48.138;11.428;2022-12-29T04:33:43;95245.50;;;6.02;51.73
38225;BME280;24025;48.138;11.428;2022-12-29T04:36:14;95239.09;;;6.03;51.38
38225;BME280;24025;48.138;11.428;2022-12-29T04:38:44;95238.00;;;6.04;52.05
38225;BME280;24025;48.138;11.428;2022-12-29T04:41:14;95235.75;;;6.06;51.75
38225;BME280;24025;48.138;11.428;2022-12-29T04:43:45;95233.19;;;6.09;51.33
38225;BME280;24025;48.138;11.428;2022-12-29T04:46:15;95233.19;;;6.09;51.78
38225;BME280;24025;48.138;11.428;2022-12-29T04:48:46;95229.03;;;6.08;51.61
38225;BME280;24025;48.138;11.428;2022-12-29T04:51:16;95235.06;;;6.09;51.87
38225;BME280;24025;48.138;11.428;2022-12-29T04:53:46;95229.03;;;6.08;52.09
38225;BME280;24025;48.138;11.428;2022-12-29T04:56:17;95238.06;;;6.07;52.26
38225;BME280;24025;48.138;11.428;2022-12-29T04:58:47;95237.31;;;6.07;52.44
38225;BME280;24025;48.138;11.428;2022-12-29T05:01:18;95232.44;;;6.09;52.72
38225;BME280;24025;48.138;11.428;2022-12-29T05:03:50;95240.06;;;6.10;51.77
38225;BME280;24025;48.138;11.428;2022-12-29T05:06:21;95245.78;;;6.12;52.01
38225;BME280;24025;48.138;11.428;2022-12-29T05:08:51;95252.59;;;6.13;51.77
38225;BME280;24025;48.138;11.428;2022-12-29T05:11:21;95249.94;;;6.13;52.37
38225;BME280;24025;48.138;11.428;2022-12-29T05:13:52;95249.25;;;6.16;51.55
38225;BME280;24025;48.138;11.428;2022-12-29T05:16:22;95250.78;;;6.17;51.79
38225;BME280;24025;48.138;11.428;2022-12-29T05:18:52;95246.63;;;6.16;51.42
38225;BME280;24025;48.138;11.428;2022-12-29T05:21:23;95258.31;;;6.15;52.12
38225;BME280;24025;48.138;11.428;2022-12-29T05:23:53;95252.25;;;6.15;51.87
38225;BME280;24025;48.138;11.428;2022-12-29T05:26:24;95255.31;;;6.17;52.21
38225;BME280;24025;48.138;11.428;2022-12-29T05:28:54;95254.13;;;6.14;52.58
38225;BME280;24025;48.138;11.428;2022-12-29T05:31:25;95250.78;;;6.17;52.98
38225;BME280;24025;48.138;11.428;2022-12-29T05:33:55;95247.38;;;6.17;52.27
38225;BME280;24025;48.138;11.428;2022-12-29T05:36:26;95249.38;;;6.20;51.97
38225;BME280;24025;48.138;11.428;2022-12-29T05:38:56;95240.97;;;6.18;52.54
38225;BME280;24025;48.138;11.428;2022-12-29T05:41:26;95235.38;;;6.19;52.08
38225;BME280;24025;48.138;11.428;2022-12-29T05:43:57;95240.66;;;6.19;51.29
38225;BME280;24025;48.138;11.428;2022-12-29T05:46:27;95237.25;;;6.19;52.05
38225;BME280;24025;48.138;11.428;2022-12-29T05:48:58;95230.72;;;6.16;52.08
38225;BME280;24025;48.138;11.428;2022-12-29T05:51:28;95238.25;;;6.14;52.35
38225;BME280;24025;48.138;11.428;2022-12-29T05:53:59;95232.97;;;6.14;52.05
38225;BME280;24025;48.138;11.428;2022-12-29T05:56:29;95239.78;;;6.15;52.85
38225;BME280;24025;48.138;11.428;2022-12-29T05:58:59;95235.59;;;6.14;52.64
38225;BME280;24025;48.138;11.428;2022-12-29T06:01:30;95227.66;;;6.14;52.43
38225;BME280;24025;48.138;11.428;2022-12-29T06:04:00;95229.97;;;6.16;52.42
38225;BME280;24025;48.138;11.428;2022-12-29T06:06:31;95240.56;;;6.16;52.99
38225;BME280;24025;48.138;11.428;2022-12-29T06:09:01;95237.56;;;6.17;52.79
38225;BME280;24025;48.138;11.428;2022-12-29T06:11:32;95242.84;;;6.17;52.30
38225;BME280;24025;48.138;11.428;2022-12-29T06:14:02;95242.19;;;6.20;52.75
38225;BME280;24025;48.138;11.428;2022-12-29T06:16:32;95242.63;;;6.22;52.02
38225;BME280;24025;48.138;11.428;2022-12-29T06:19:03;95238.84;;;6.23;52.05
38225;BME280;24025;48.138;11.428;2022-12-29T06:21:33;95250.63;;;6.26;52.67
38225;BME280;24025;48.138;11.428;2022-12-29T06:24:04;95251.75;;;6.25;52.80
38225;BME280;24025;48.138;11.428;2022-12-29T06:26:35;95246.56;;;6.29;51.86
38225;BME280;24025;48.138;11.428;2022-12-29T06:29:07;95246.63;;;6.32;51.52
38225;BME280;24025;48.138;11.428;2022-12-29T06:31:38;95249.28;;;6.32;52.65
38225;BME280;24025;48.138;11.428;2022-12-29T06:34:08;95250.06;;;6.33;52.16
38225;BME280;24025;48.138;11.428;2022-12-29T06:36:39;95245.19;;;6.35;52.53
38225;BME280;24025;48.138;11.428;2022-12-29T06:39:10;95241.00;;;6.34;52.66
38225;BME280;24025;48.138;11.428;2022-12-29T06:41:40;95248.59;;;6.35;51.69
38225;BME280;24025;48.138;11.428;2022-12-29T06:44:11;95249.69;;;6.34;52.36
38225;BME280;24025;48.138;11.428;2022-12-29T06:46:41;95244.06;;;6.36;52.17
38225;BME280;24025;48.138;11.428;2022-12-29T06:49:11;95249.81;;;6.38;51.80
38225;BME280;24025;48.138;11.428;2022-12-29T06:51:42;95249.81;;;6.38;52.83
38225;BME280;24025;48.138;11.428;2022-12-29T06:54:12;95245.63;;;6.37;52.25
38225;BME280;24025;48.138;11.428;2022-12-29T06:56:43;95244.06;;;6.36;52.87
38225;BME280;24025;48.138;11.428;2022-12-29T06:59:13;95246.72;;;6.36;52.70
38225;BME280;24025;48.138;11.428;2022-12-29T07:01:44;95247.06;;;6.34;52.66
38225;BME280;24025;48.138;11.428;2022-12-29T07:04:14;95255.34;;;6.33;52.83
38225;BME280;24025;48.138;11.428;2022-12-29T07:06:44;95256.47;;;6.32;53.29
38225;BME280;24025;48.138;11.428;2022-12-29T07:09:15;95263.63;;;6.31;53.03
38225;BME280;24025;48.138;11.428;2022-12-29T07:11:45;95275.69;;;6.29;52.68
38225;BME280;24025;48.138;11.428;2022-12-29T07:14:15;95273.34;;;6.27;53.11
38225;BME280;24025;48.138;11.428;2022-12-29T07:16:46;95277.03;;;6.22;52.81
38225;BME280;24025;48.138;11.428;2022-12-29T07:19:16;95273.53;;;6.18;53.93
38225;BME280;24025;48.138;11.428;2022-12-29T07:21:47;95277.28;;;6.17;53.82
38225;BME280;24025;48.138;11.428;2022-12-29T07:24:17;95282.56;;;6.17;54.82
38225;BME280;24025;48.138;11.428;2022-12-29T07:26:47;95290.84;;;6.16;54.41
38225;BME280;24025;48.138;11.428;2022-12-29T07:29:18;95287.84;;;6.17;54.33
38225;BME280;24025;48.138;11.428;2022-12-29T07:31:48;95296.25;;;6.19;53.92
38225;BME280;24025;48.138;11.428;2022-12-29T07:34:19;95294.38;;;6.20;54.17
38225;BME280;24025;48.138;11.428;2022-12-29T07:36:49;95284.22;;;6.22;53.79
38225;BME280;24025;48.138;11.428;2022-12-29T07:39:20;95294.22;;;6.29;53.56
38225;BME280;24025;48.138;11.428;2022-12-29T07:41:50;95288.22;;;6.32;53.00
38225;BME280;24025;48.138;11.428;2022-12-29T07:44:20;95291.84;;;6.39;52.55
38225;BME280;24025;48.138;11.428;2022-12-29T07:46:51;95290.72;;;6.40;52.91
38225;BME280;24025;48.138;11.428;2022-12-29T07:49:21;95295.00;;;6.45;52.10
38225;BME280;24025;48.138;11.428;2022-12-29T07:51:52;95289.03;;;6.48;52.16
38225;BME280;24025;48.138;11.428;2022-12-29T07:54:22;95299.78;;;6.55;52.29
38225;BME280;24025;48.138;11.428;2022-12-29T07:56:53;95293.09;;;6.61;51.74
38225;BME280;24025;48.138;11.428;2022-12-29T07:59:24;95300.47;;;6.68;51.65
38225;BME280;24025;48.138;11.428;2022-12-29T08:01:54;95303.28;;;6.75;51.43
38225;BME280;24025;48.138;11.428;2022-12-29T08:04:25;95291.34;;;6.81;50.89
38225;BME280;24025;48.138;11.428;2022-12-29T08:06:55;95293.69;;;6.86;50.53
38225;BME280;24025;48.138;11.428;2022-12-29T08:09:25;95296.09;;;6.91;50.43
38225;BME280;24025;48.138;11.428;2022-12-29T08:11:56;95293.19;;;6.96;49.96
38225;BME280;24025;48.138;11.428;2022-12-29T08:14:26;95289.41;;;6.97;49.83
38225;BME280;24025;48.138;11.428;2022-12-29T08:16:56;95287.97;;;7.00;49.70
38225;BME280;24025;48.138;11.428;2022-12-29T08:19:27;95287.97;;;7.00;49.90
38225;BME280;24025;48.138;11.428;2022-12-29T08:21:57;95289.50;;;7.01;49.87
38225;BME280;24025;48.138;11.428;2022-12-29T08:24:28;95295.56;;;7.01;49.04
38225;BME280;24025;48.138;11.428;2022-12-29T08:26:58;95293.84;;;7.09;49.04
38225;BME280;24025;48.138;11.428;2022-12-29T08:29:28;95292.13;;;7.17;49.25
38225;BME280;24025;48.138;11.428;2022-12-29T08:31:59;95299.91;;;7.25;48.37
38225;BME280;24025;48.138;11.428;2022-12-29T08:34:31;95294.13;;;7.39;48.33
38225;BME280;24025;48.138;11.428;2022-12-29T08:37:01;95296.31;;;7.53;48.22
38225;BME280;24025;48.138;11.428;2022-12-29T08:39:32;95300.72;;;7.64;48.00
38225;BME280;24025;48.138;11.428;2022-12-29T08:42:02;95300.50;;;7.73;48.41
38225;BME280;24025;48.138;11.428;2022-12-29T08:44:32;95293.03;;;7.79;47.85
38225;BME280;24025;48.138;11.428;2022-12-29T08:47:03;95293.59;;;7.88;47.40
38225;BME280;24025;48.138;11.428;2022-12-29T08:49:33;95297.56;;;7.98;46.96
38225;BME280;24025;48.138;11.428;2022-12-29T08:52:04;95299.94;;;8.03;46.37
38225;BME280;24025;48.138;11.428;2022-12-29T08:54:34;95305.09;;;8.15;46.49
38225;BME280;24025;48.138;11.428;2022-12-29T08:57:05;95313.75;;;8.31;46.06
38225;BME280;24025;48.138;11.428;2022-12-29T08:59:35;95311.25;;;8.38;45.78
38225;BME280;24025;48.138;11.428;2022-12-29T09:02:05;95320.19;;;8.49;45.80
38225;BME280;24025;48.138;11.428;2022-12-29T09:04:36;95316.84;;;8.56;44.99
38225;BME280;24025;48.138;11.428;2022-12-29T09:07:06;95314.81;;;8.69;45.29
38225;BME280;24025;48.138;11.428;2022-12-29T09:09:37;95308.91;;;8.79;44.98
38225;BME280;24025;48.138;11.428;2022-12-29T09:12:07;95319.69;;;8.90;44.84
38225;BME280;24025;48.138;11.428;2022-12-29T09:14:37;95322.09;;;8.98;43.78
38225;BME280;24025;48.138;11.428;2022-12-29T09:17:08;95334.03;;;9.08;43.83
38225;BME280;24025;48.138;11.428;2022-12-29T09:19:57;95330.75;;;9.18;43.63
38225;BME280;24025;48.138;11.428;2022-12-29T09:22:28;95322.53;;;9.27;43.47
38225;BME280;24025;48.138;11.428;2022-12-29T09:24:58;95324.16;;;9.35;43.08
38225;BME280;24025;48.138;11.428;2022-12-29T09:27:29;95317.38;;;9.38;43.09
38225;BME280;24025;48.138;11.428;2022-12-29T09:30:00;95327.41;;;9.48;42.71
38225;BME280;24025;48.138;11.428;2022-12-29T09:32:30;95325.81;;;9.43;43.12
38225;BME280;24025;48.138;11.428;2022-12-29T09:35:01;95320.94;;;9.49;43.81
38225;BME280;24025;48.138;11.428;2022-12-29T09:37:31;95308.50;;;9.56;43.45
38225;BME280;24025;48.138;11.428;2022-12-29T09:40:03;95310.34;;;9.52;42.87
38225;BME280;24025;48.138;11.428;2022-12-29T09:42:55;95309.28;;;9.57;43.51
38225;BME280;24025;48.138;11.428;2022-12-29T09:48:17;95314.59;;;9.57;43.67
38225;BME280;24025;48.138;11.428;2022-12-29T09:50:52;95323.75;;;9.59;44.06
38225;BME280;24025;48.138;11.428;2022-12-29T09:53:32;95311.97;;;9.60;44.11
38225;BME280;24025;48.138;11.428;2022-12-29T09:56:17;95310.81;;;9.58;44.05
38225;BME280;24025;48.138;11.428;2022-12-29T09:59:09;95309.66;;;9.55;43.00
38225;BME280;24025;48.138;11.428;2022-12-29T10:01:45;95302.00;;;9.54;43.42
38225;BME280;24025;48.138;11.428;2022-12-29T10:04:19;95300.81;;;9.51;42.92
38225;BME280;24025;48.138;11.428;2022-12-29T10:18:05;95303.34;;;9.41;42.45
38225;BME280;24025;48.138;11.428;2022-12-29T10:21:01;95302.00;;;9.54;42.86
38225;BME280;24025;48.138;11.428;2022-12-29T10:23:39;95299.44;;;9.61;42.59
38225;BME280;24025;48.138;11.428;2022-12-29T10:26:17;95282.38;;;9.65;41.79
38225;BME280;24025;48.138;11.428;2022-12-29T10:28:56;95284.00;;;9.74;42.14
38225;BME280;24025;48.138;11.428;2022-12-29T10:31:35;95282.97;;;9.82;42.05
38225;BME280;24025;48.138;11.428;2022-12-29T10:34:19;95283.81;;;9.89;41.95
38225;BME280;24025;48.138;11.428;2022-12-29T10:36:55;95280.50;;;10.00;42.22
38225;BME280;24025;48.138;11.428;2022-12-29T10:39:43;95276.78;;;10.08;42.07
38225;BME280;24025;48.138;11.428;2022-12-29T10:42:25;95269.28;;;10.17;42.01
38225;BME280;24025;48.138;11.428;2022-12-29T10:44:57;95266.28;;;10.22;42.37
38225;BME280;24025;48.138;11.428;2022-12-29T10:47:33;95263.72;;;10.29;41.48
38225;BME280;24025;48.138;11.428;2022-12-29T10:50:05;95262.97;;;10.32;41.83
38225;BME280;24025;48.138;11.428;2022-12-29T10:52:37;95258.47;;;10.40;41.35
38225;BME280;24025;48.138;11.428;2022-12-29T10:55:18;95255.94;;;10.54;41.41
38225;BME280;24025;48.138;11.428;2022-12-29T10:57:50;95257.19;;;10.67;41.29
38225;BME280;24025;48.138;11.428;2022-12-29T11:00:21;95255.72;;;10.73;40.90
38225;BME280;24025;48.138;11.428;2022-12-29T11:08:36;95242.31;;;11.21;40.76
38225;BME280;24025;48.138;11.428;2022-12-29T11:11:09;95242.00;;;11.37;40.74
38225;BME280;24025;48.138;11.428;2022-12-29T11:13:51;95234.13;;;11.66;40.48
38225;BME280;24025;48.138;11.428;2022-12-29T11:16:32;95240.03;;;12.07;39.92
38225;BME280;24025;48.138;11.428;2022-12-29T11:19:04;95238.19;;;12.57;40.31
38225;BME280;24025;48.138;11.428;2022-12-29T11:21:38;95235.47;;;13.07;39.29
38225;BME280;24025;48.138;11.428;2022-12-29T11:24:29;95228.88;;;13.58;37.56
38225;BME280;24025;48.138;11.428;2022-12-29T11:27:15;95220.41;;;13.74;35.70
38225;BME280;24025;48.138;11.428;2022-12-29T11:29:46;95216.84;;;13.98;35.67
38225;BME280;24025;48.138;11.428;2022-12-29T11:32:25;95215.22;;;14.15;35.73
38225;BME280;24025;48.138;11.428;2022-12-29T11:34:57;95210.19;;;14.21;34.61
38225;BME280;24025;48.138;11.428;2022-12-29T11:37:36;95203.53;;;13.80;34.67
38225;BME280;24025;48.138;11.428;2022-12-29T11:40:19;95207.84;;;13.56;34.97
38225;BME280;24025;48.138;11.428;2022-12-29T11:43:00;95207.13;;;13.42;34.77
38225;BME280;24025;48.138;11.428;2022-12-29T11:45:35;95208.25;;;13.48;35.46
38225;BME280;24025;48.138;11.428;2022-12-29T11:48:19;95192.84;;;13.73;34.21
38225;BME280;24025;48.138;11.428;2022-12-29T11:50:53;95200.75;;;13.95;34.39
38225;BME280;24025;48.138;11.428;2022-12-29T11:53:46;95195.84;;;14.49;33.47
38225;BME280;24025;48.138;11.428;2022-12-29T11:56:32;95199.94;;;14.67;33.79
38225;BME280;24025;48.138;11.428;2022-12-29T12:02:22;95203.25;;;15.23;32.05
38225;BME280;24025;48.138;11.428;2022-12-29T12:05:16;95194.81;;;15.21;32.15
38225;BME280;24025;48.138;11.428;2022-12-29T12:08:04;95206.16;;;15.36;33.29
38225;BME280;24025;48.138;11.428;2022-12-29T12:13:23;95196.59;;;15.69;32.25
38225;BME280;24025;48.138;11.428;2022-12-29T12:16:15;95197.56;;;15.86;32.41
38225;BME280;24025;48.138;11.428;2022-12-29T12:19:13;95187.34;;;15.40;32.73
38225;BME280;24025;48.138;11.428;2022-12-29T12:21:49;95188.31;;;15.19;33.60
38225;BME280;24025;48.138;11.428;2022-12-29T12:27:15;95182.72;;;15.74;34.11
38225;BME280;24025;48.138;11.428;2022-12-29T12:30:33;95177.13;;;16.19;33.62
38225;BME280;24025;48.138;11.428;2022-12-29T13:00:40;95171.34;;;13.84;37.17
38225;BME280;24025;48.138;11.428;2022-12-29T13:06:04;95163.38;;;13.73;37.74
38225;BME280;24025;48.138;11.428;2022-12-29T13:11:31;95165.78;;;13.43;39.04
38225;BME280;24025;48.138;11.428;2022-12-29T13:14:46;95165.47;;;13.16;39.64
38225;BME280;24025;48.138;11.428;2022-12-29T13:17:32;95165.50;;;13.12;39.85
38225;BME280;24025;48.138;11.428;2022-12-29T13:20:10;95167.78;;;13.07;40.09
38225;BME280;24025;48.138;11.428;2022-12-29T13:28:28;95156.41;;;12.81;40.94
38225;BME280;24025;48.138;11.428;2022-12-29T13:34:36;95163.66;;;12.73;41.77
38225;BME280;24025;48.138;11.428;2022-12-29T13:37:14;95171.31;;;12.64;42.12
38225;BME280;24025;48.138;11.428;2022-12-29T13:39:52;95168.63;;;12.54;42.52
38225;BME280;24025;48.138;11.428;2022-12-29T13:42:26;95172.09;;;12.43;42.75
38225;BME280;24025;48.138;11.428;2022-12-29T13:45:10;95165.97;;;12.36;43.48
38225;BME280;24025;48.138;11.428;2022-12-29T13:48:07;95169.78;;;12.35;43.30
38225;BME280;24025;48.138;11.428;2022-12-29T13:50:40;95171.31;;;12.32;43.88
38225;BME280;24025;48.138;11.428;2022-12-29T13:53:28;95173.63;;;12.34;43.76
38225;BME280;24025;48.138;11.428;2022-12-29T13:56:17;95164.44;;;12.35;44.20
38225;BME280;24025;48.138;11.428;2022-12-29T13:58:56;95174.38;;;12.38;44.18
38225;BME280;24025;48.138;11.428;2022-12-29T14:01:35;95165.59;;;12.34;44.95
38225;BME280;24025;48.138;11.428;2022-12-29T14:04:12;95169.41;;;12.33;45.06
38225;BME280;24025;48.138;11.428;2022-12-29T14:06:44;95170.94;;;12.27;45.18
38225;BME280;24025;48.138;11.428;2022-12-29T14:09:43;95167.09;;;12.10;46.53
38225;BME280;24025;48.138;11.428;2022-12-29T14:17:41;95181.59;;;11.98;46.69
38225;BME280;24025;48.138;11.428;2022-12-29T14:20:21;95178.13;;;11.87;47.39
38225;BME280;24025;48.138;11.428;2022-12-29T14:28:38;95184.94;;;11.67;48.08
38225;BME280;24025;48.138;11.428;2022-12-29T14:36:39;95183.38;;;11.58;48.09
38225;BME280;24025;48.138;11.428;2022-12-29T14:39:32;95182.22;;;11.52;49.00
38225;BME280;24025;48.138;11.428;2022-12-29T14:44:50;95183.31;;;11.41;48.51
38225;BME280;24025;48.138;11.428;2022-12-29T14:47:32;95188.66;;;11.41;48.80
38225;BME280;24025;48.138;11.428;2022-12-29T14:52:49;95196.97;;;11.28;49.30
38225;BME280;24025;48.138;11.428;2022-12-29T14:58:21;95184.00;;;11.23;49.15
38225;BME280;24025;48.138;11.428;2022-12-29T15:00:54;95185.09;;;11.15;50.42
38225;BME280;24025;48.138;11.428;2022-12-29T15:03:44;95186.22;;;11.11;49.97
38225;BME280;24025;48.138;11.428;2022-12-29T15:06:17;95196.50;;;11.09;49.67
38225;BME280;24025;48.138;11.428;2022-12-29T15:08:59;95196.84;;;11.03;50.39
38225;BME280;24025;48.138;11.428;2022-12-29T15:14:36;95201.41;;;10.96;50.48
38225;BME280;24025;48.138;11.428;2022-12-29T15:19:56;95192.53;;;10.85;52.26
38225;BME280;24025;48.138;11.428;2022-12-29T15:22:27;95195.16;;;10.77;51.11
38225;BME280;24025;48.138;11.428;2022-12-29T15:24:58;95198.56;;;10.74;51.00
38225;BME280;24025;48.138;11.428;2022-12-29T15:27:28;95211.13;;;10.70;51.61
38225;BME280;24025;48.138;11.428;2022-12-29T15:30:03;95209.59;;;10.69;51.12
38225;BME280;24025;48.138;11.428;2022-12-29T15:32:43;95208.03;;;10.68;51.41
38225;BME280;24025;48.138;11.428;2022-12-29T15:35:24;95203.47;;;10.69;51.75
38225;BME280;24025;48.138;11.428;2022-12-29T15:37:55;95210.38;;;10.70;51.20
38225;BME280;24025;48.138;11.428;2022-12-29T15:40:29;95208.78;;;10.65;51.44
38225;BME280;24025;48.138;11.428;2022-12-29T15:45:36;95211.47;;;10.69;51.85
38225;BME280;24025;48.138;11.428;2022-12-29T15:48:17;95211.09;;;10.67;51.87
38225;BME280;24025;48.138;11.428;2022-12-29T15:50:48;95203.06;;;10.63;52.43